RJEO(METAR)
01/23 14:00
RJEO 230500Z 35017G28KT 1500 SN FEW003 BKN015 M03/M05 Q1009 RMK
A2981=
戻る
トップページへ戻る
IMOC Co,.Ltd.